Time;durP1;ratioP1;P1;durP2;ratioP2;P2;SDS_P1;SDS_P2;PMS_P1;PMS_P2;Temp;Humidity;BMP_temperature;BMP_pressure;BME280_temperature;BME280_humidity;BME280_pressure;Samples;Min_cycle;Max_cycle;Signal;HPM_P1;HPM_P2
2022/07/10 00:00:08;;;;;;;;;9.00;8.25;;;29.72;97492.70;;;;118951;1189;25673;-65
2022/07/10 00:02:56;;;;;;;;;6.25;6.25;;;29.81;97492.73;;;;118955;1189;25044;-65
2022/07/10 00:05:25;;;;;;;;;8.25;6.25;;;29.82;97487.21;;;;118991;1190;25035;-65
2022/07/10 00:07:53;;;;;;;;;7.00;7.00;;;29.79;97484.89;;;;118934;1190;26496;-64
2022/07/10 00:10:21;;;;;;;;;8.00;8.00;;;29.77;97477.91;;;;118959;1189;26178;-65
2022/07/10 00:12:51;;;;;;;;;9.75;9.00;;;29.75;97475.38;;;;119012;1189;24738;-65
2022/07/10 00:15:19;;;;;;;;;8.00;8.00;;;29.73;97472.73;;;;118984;1189;25608;-65
2022/07/10 00:17:47;;;;;;;;;7.75;5.00;;;29.72;97466.93;;;;118971;1190;25993;-66
2022/07/10 00:20:16;;;;;;;;;9.00;8.25;;;29.73;97463.42;;;;118993;1189;25170;-66
2022/07/10 00:22:43;;;;;;;;;10.50;8.75;;;29.72;97457.45;;;;118954;1190;25478;-65
2022/07/10 00:25:13;;;;;;;;;7.25;6.00;;;29.70;97450.90;;;;118967;1189;25011;-65
2022/07/10 00:27:41;;;;;;;;;6.00;5.75;;;29.70;97454.55;;;;118900;1190;24886;-65
2022/07/10 00:30:10;;;;;;;;;6.75;5.00;;;29.71;97454.73;;;;118973;1190;25025;-65
2022/07/10 00:32:38;;;;;;;;;13.75;8.50;;;29.70;97452.89;;;;118990;1189;25174;-65
2022/07/10 00:35:07;;;;;;;;;10.75;6.75;;;29.69;97451.08;;;;118968;1189;24809;-65
2022/07/10 00:37:36;;;;;;;;;8.00;6.00;;;29.69;97451.52;;;;118965;1189;25262;-65
2022/07/10 00:40:05;;;;;;;;;6.50;5.25;;;29.69;97453.70;;;;118976;1189;25688;-65
2022/07/10 00:42:33;;;;;;;;;7.00;7.00;;;29.69;97453.78;;;;119002;1189;25667;-65
2022/07/10 00:45:01;;;;;;;;;8.00;7.00;;;29.68;97458.91;;;;119005;1189;25226;-65
2022/07/10 00:47:29;;;;;;;;;10.00;9.50;;;29.68;97456.48;;;;118986;1189;25696;-66
2022/07/10 00:49:57;;;;;;;;;7.75;7.75;;;29.66;97453.16;;;;118944;1189;25414;-65
2022/07/10 00:52:26;;;;;;;;;8.75;8.50;;;29.67;97456.22;;;;118988;1189;25119;-65
2022/07/10 00:54:54;;;;;;;;;6.75;6.75;;;29.69;97455.39;;;;118909;1190;25222;-65
2022/07/10 00:57:23;;;;;;;;;8.50;7.75;;;29.68;97452.70;;;;118950;1190;25321;-65
2022/07/10 00:59:52;;;;;;;;;8.75;7.75;;;29.68;97453.39;;;;118893;1189;26605;-65
2022/07/10 01:02:20;;;;;;;;;10.33;8.00;;;29.67;97451.72;;;;118948;1189;24967;-66
2022/07/10 01:04:48;;;;;;;;;7.50;7.25;;;29.67;97449.23;;;;118958;1190;25445;-65
2022/07/10 01:07:16;;;;;;;;;9.25;8.50;;;29.66;97446.52;;;;118967;1189;26199;-65
2022/07/10 01:09:44;;;;;;;;;6.00;4.50;;;29.65;97448.91;;;;118982;1189;25425;-65
2022/07/10 01:12:12;;;;;;;;;10.00;8.00;;;29.64;97445.67;;;;118971;1189;26043;-65
2022/07/10 01:14:41;;;;;;;;;9.50;7.50;;;29.64;97443.06;;;;118946;1190;26338;-65
2022/07/10 01:17:09;;;;;;;;;6.33;6.33;;;29.65;97441.63;;;;118976;1189;26296;-65
2022/07/10 01:19:37;;;;;;;;;5.25;5.25;;;29.65;97440.23;;;;118933;1189;25912;-65
2022/07/10 01:22:06;;;;;;;;;7.50;7.50;;;29.64;97438.83;;;;118980;1189;25614;-65
2022/07/10 01:24:34;;;;;;;;;11.00;8.33;;;29.64;97441.11;;;;118942;1190;26206;-65
2022/07/10 01:27:03;;;;;;;;;10.00;8.50;;;29.65;97437.55;;;;118959;1189;25473;-65
2022/07/10 01:29:32;;;;;;;;;7.50;6.00;;;29.64;97437.70;;;;118984;1190;25153;-65
2022/07/10 01:32:01;;;;;;;;;6.75;6.00;;;29.64;97430.40;;;;118976;1189;25743;-66
2022/07/10 01:34:29;;;;;;;;;8.25;6.50;;;29.64;97426.55;;;;118974;1189;25489;-64
2022/07/10 01:36:57;;;;;;;;;8.25;8.25;;;29.63;97426.93;;;;118975;1188;25672;-65
2022/07/10 01:39:25;;;;;;;;;6.00;6.00;;;29.62;97429.92;;;;118928;1190;25140;-65
2022/07/10 01:41:52;;;;;;;;;8.25;8.25;;;29.62;97428.14;;;;118979;1189;26302;-65
2022/07/10 01:44:20;;;;;;;;;7.00;6.50;;;29.61;97425.29;;;;118976;1189;26372;-65
2022/07/10 01:46:51;;;;;;;;;7.50;7.50;;;29.61;97423.74;;;;118959;1189;25372;-65
2022/07/10 01:49:19;;;;;;;;;6.50;5.00;;;29.61;97418.84;;;;118983;1189;26083;-65
2022/07/10 01:51:46;;;;;;;;;5.50;5.00;;;29.59;97418.02;;;;118975;1189;26376;-64
2022/07/10 01:54:14;;;;;;;;;8.00;7.75;;;29.59;97415.54;;;;118945;1189;25493;-64
2022/07/10 01:56:42;;;;;;;;;8.00;7.75;;;29.60;97417.91;;;;118983;1189;24941;-64
2022/07/10 01:59:10;;;;;;;;;10.00;6.50;;;29.60;97416.70;;;;118971;1189;25439;-65
2022/07/10 02:01:38;;;;;;;;;6.75;6.75;;;29.59;97413.73;;;;118967;1189;25493;-65
2022/07/10 02:06:52;;;;;;;;;8.75;7.50;;;29.61;97411.06;;;;118964;1189;26131;-66
2022/07/10 02:09:20;;;;;;;;;9.25;6.75;;;29.59;97412.06;;;;118991;1189;24783;-65
2022/07/10 02:11:48;;;;;;;;;5.75;5.00;;;29.59;97411.86;;;;118986;1189;25356;-64
2022/07/10 02:14:16;;;;;;;;;7.25;6.75;;;29.59;97411.55;;;;118990;1189;26111;-65
2022/07/10 02:16:44;;;;;;;;;7.00;7.00;;;29.58;97409.07;;;;118951;1189;25137;-65
2022/07/10 02:19:12;;;;;;;;;7.25;6.50;;;29.58;97411.71;;;;118958;1189;25248;-65
2022/07/10 02:21:40;;;;;;;;;8.00;7.75;;;29.58;97407.63;;;;118980;1189;25956;-66
2022/07/10 02:24:08;;;;;;;;;7.50;4.50;;;29.58;97408.15;;;;118999;1190;26557;-66
2022/07/10 02:26:36;;;;;;;;;9.75;7.25;;;29.58;97405.42;;;;118949;1189;25063;-66
2022/07/10 02:29:04;;;;;;;;;11.00;8.75;;;29.57;97407.76;;;;118987;1190;24715;-65
2022/07/10 02:31:34;;;;;;;;;5.25;5.25;;;29.57;97408.05;;;;118999;1189;25501;-65
2022/07/10 02:34:02;;;;;;;;;7.67;7.67;;;29.58;97403.96;;;;118974;1189;25195;-66
2022/07/10 02:36:30;;;;;;;;;9.00;9.00;;;29.58;97402.18;;;;119005;1189;25481;-66
2022/07/10 02:38:58;;;;;;;;;6.75;6.75;;;29.57;97402.38;;;;118984;1189;25007;-65
2022/07/10 02:41:26;;;;;;;;;6.00;5.50;;;29.57;97401.45;;;;118977;1190;24971;-65
2022/07/10 02:43:54;;;;;;;;;6.00;6.00;;;29.57;97402.34;;;;118984;1188;25279;-65
2022/07/10 02:46:22;;;;;;;;;5.50;4.50;;;29.56;97401.45;;;;118962;1189;24876;-65
2022/07/10 02:48:50;;;;;;;;;6.00;6.00;;;29.56;97400.17;;;;118958;1189;26168;-65
2022/07/10 02:51:18;;;;;;;;;9.00;8.00;;;29.56;97400.95;;;;118971;1189;25082;-65
2022/07/10 02:53:45;;;;;;;;;5.75;4.25;;;29.55;97400.20;;;;118969;1190;25803;-65
2022/07/10 02:56:13;;;;;;;;;8.00;6.50;;;29.55;97399.95;;;;118984;1189;26163;-65
2022/07/10 02:58:41;;;;;;;;;5.25;5.25;;;29.55;97400.79;;;;118988;1189;25954;-65
2022/07/10 03:01:09;;;;;;;;;8.75;8.75;;;29.56;97404.99;;;;118983;1189;25292;-65
2022/07/10 03:03:37;;;;;;;;;5.50;4.25;;;29.56;97403.63;;;;118996;1189;25338;-65
2022/07/10 03:06:05;;;;;;;;;6.75;6.00;;;29.56;97401.76;;;;118977;1189;25413;-65
2022/07/10 03:08:33;;;;;;;;;7.75;7.00;;;29.56;97405.13;;;;118968;1189;24943;-64
2022/07/10 03:11:01;;;;;;;;;9.50;7.75;;;29.55;97405.16;;;;118980;1188;25567;-65
2022/07/10 03:13:29;;;;;;;;;6.75;6.00;;;29.55;97403.88;;;;119008;1189;25086;-65
2022/07/10 03:15:56;;;;;;;;;5.25;4.75;;;29.55;97402.09;;;;118978;1189;25571;-65
2022/07/10 03:18:24;;;;;;;;;6.75;5.25;;;29.55;97398.73;;;;118972;1189;25099;-65
2022/07/10 03:20:52;;;;;;;;;7.25;6.00;;;29.55;97393.42;;;;118983;1190;25001;-65
2022/07/10 03:23:20;;;;;;;;;7.50;6.75;;;29.55;97389.80;;;;118969;1189;25571;-65
2022/07/10 03:25:48;;;;;;;;;7.50;5.75;;;29.54;97389.58;;;;118986;1189;24788;-65
2022/07/10 03:28:15;;;;;;;;;9.00;8.25;;;29.54;97391.41;;;;118991;1190;25116;-65
2022/07/10 03:30:43;;;;;;;;;9.33;7.33;;;29.53;97389.71;;;;118975;1189;25369;-65
2022/07/10 03:33:11;;;;;;;;;7.50;6.75;;;29.53;97392.56;;;;118973;1190;25659;-65
2022/07/10 03:35:39;;;;;;;;;6.00;6.00;;;29.54;97394.15;;;;118957;1189;25399;-64
2022/07/10 03:38:06;;;;;;;;;5.00;4.25;;;29.54;97394.86;;;;118970;1189;26314;-65
2022/07/10 03:40:34;;;;;;;;;5.25;5.25;;;29.53;97392.16;;;;118985;1189;25596;-65
2022/07/10 03:43:03;;;;;;;;;8.25;6.25;;;29.53;97392.52;;;;118988;1189;25344;-66
2022/07/10 03:45:31;;;;;;;;;6.50;6.50;;;29.53;97390.31;;;;118976;1189;24904;-65
2022/07/10 03:47:58;;;;;;;;;4.25;4.00;;;29.53;97389.56;;;;118965;1189;25481;-65
2022/07/10 03:50:26;;;;;;;;;8.67;6.00;;;29.53;97392.31;;;;118895;1191;25470;-65
2022/07/10 03:52:54;;;;;;;;;7.25;5.50;;;29.53;97393.16;;;;118979;1188;24936;-65
2022/07/10 03:55:22;;;;;;;;;6.50;4.75;;;29.54;97395.20;;;;118976;1189;25307;-65
2022/07/10 03:58:02;;;;;;;;;6.50;6.25;;;29.53;97393.80;;;;118986;1188;25467;-65
2022/07/10 04:00:32;;;;;;;;;5.00;5.00;;;29.54;97390.63;;;;118962;1189;25985;-66
2022/07/10 04:03:01;;;;;;;;;6.25;6.00;;;29.56;97389.42;;;;118953;1189;24999;-65
2022/07/10 04:05:29;;;;;;;;;8.25;6.75;;;29.56;97391.41;;;;118936;1189;25528;-65
2022/07/10 04:08:00;;;;;;;;;7.25;5.00;;;29.57;97391.34;;;;118942;1189;24888;-66
2022/07/10 04:10:29;;;;;;;;;5.25;5.25;;;29.58;97391.67;;;;118971;1190;25203;-65
2022/07/10 04:12:58;;;;;;;;;5.33;4.67;;;29.59;97388.70;;;;118957;1190;25359;-65
2022/07/10 04:15:26;;;;;;;;;7.75;4.50;;;29.60;97389.63;;;;118967;1189;25487;-65
2022/07/10 04:17:54;;;;;;;;;4.00;4.00;;;29.59;97387.48;;;;118988;1189;25567;-65
2022/07/10 04:20:23;;;;;;;;;9.00;6.50;;;29.59;97385.98;;;;118972;1190;26547;-65
2022/07/10 04:22:50;;;;;;;;;7.50;6.00;;;29.59;97389.74;;;;118988;1190;25167;-65
2022/07/10 04:25:18;;;;;;;;;7.50;6.00;;;29.58;97389.39;;;;118925;1190;24816;-65
2022/07/10 04:27:46;;;;;;;;;5.25;5.25;;;29.58;97389.08;;;;118975;1189;25340;-65
2022/07/10 04:30:14;;;;;;;;;7.50;5.50;;;29.57;97386.83;;;;118961;1189;25056;-66
2022/07/10 04:32:41;;;;;;;;;5.00;4.67;;;29.56;97387.81;;;;118910;1189;24884;-65
2022/07/10 04:35:09;;;;;;;;;6.67;6.67;;;29.56;97388.35;;;;118972;1189;25657;-64
2022/07/10 04:37:37;;;;;;;;;4.33;4.33;;;29.56;97391.19;;;;118972;1189;26057;-66
2022/07/10 04:40:06;;;;;;;;;8.25;6.50;;;29.55;97393.40;;;;118974;1189;24694;-66
2022/07/10 04:42:34;;;;;;;;;5.00;5.00;;;29.56;97396.27;;;;118985;1190;25957;-65
2022/07/10 04:45:02;;;;;;;;;5.75;4.50;;;29.56;97401.85;;;;118976;1190;25785;-66
2022/07/10 04:47:30;;;;;;;;;5.00;4.75;;;29.55;97398.09;;;;118989;1190;25561;-66
2022/07/10 04:49:58;;;;;;;;;7.00;5.50;;;29.55;97392.52;;;;119006;1189;24753;-65
2022/07/10 04:52:25;;;;;;;;;4.00;4.00;;;29.54;97391.28;;;;118965;1190;26184;-65
2022/07/10 04:54:53;;;;;;;;;4.67;4.00;;;29.54;97389.48;;;;118966;1189;25645;-65
2022/07/10 04:57:21;;;;;;;;;7.75;5.00;;;29.53;97388.23;;;;118920;1189;26294;-65
2022/07/10 04:59:49;;;;;;;;;4.25;3.75;;;29.54;97389.71;;;;118943;1190;25309;-66
2022/07/10 05:02:17;;;;;;;;;3.50;2.50;;;29.54;97391.70;;;;118956;1190;25018;-64
2022/07/10 05:04:45;;;;;;;;;3.67;3.67;;;29.54;97390.77;;;;118983;1189;25739;-65
2022/07/10 05:07:14;;;;;;;;;6.50;6.50;;;29.54;97396.28;;;;118982;1189;25411;-66
2022/07/10 05:09:42;;;;;;;;;5.50;4.25;;;29.54;97399.55;;;;118986;1189;25716;-66
2022/07/10 05:12:09;;;;;;;;;3.50;3.50;;;29.54;97401.15;;;;118970;1189;24982;-66
2022/07/10 05:14:37;;;;;;;;;5.00;5.00;;;29.55;97398.48;;;;119011;1189;24737;-66
2022/07/10 05:17:05;;;;;;;;;5.75;5.75;;;29.54;97394.44;;;;118975;1189;25548;-65
2022/07/10 05:19:33;;;;;;;;;5.00;5.00;;;29.54;97394.38;;;;118973;1189;26299;-66
2022/07/10 05:22:01;;;;;;;;;5.00;5.00;;;29.54;97392.60;;;;118967;1190;25499;-65
2022/07/10 05:24:29;;;;;;;;;6.00;5.25;;;29.54;97393.67;;;;118961;1189;25927;-64
2022/07/10 05:26:56;;;;;;;;;5.75;5.50;;;29.54;97395.73;;;;118954;1189;25494;-64
2022/07/10 05:29:24;;;;;;;;;6.00;5.00;;;29.55;97393.21;;;;118949;1189;24900;-65
2022/07/10 05:31:52;;;;;;;;;4.00;4.00;;;29.55;97393.67;;;;118984;1189;25788;-64
2022/07/10 05:34:20;;;;;;;;;4.75;4.75;;;29.55;97393.23;;;;118976;1189;25710;-64
2022/07/10 05:36:48;;;;;;;;;4.00;3.00;;;29.55;97387.55;;;;118989;1189;26266;-65
2022/07/10 05:39:16;;;;;;;;;5.25;4.00;;;29.56;97386.23;;;;119005;1189;24751;-66
2022/07/10 05:41:44;;;;;;;;;6.75;4.00;;;29.56;97390.55;;;;118992;1189;25509;-66
2022/07/10 05:44:12;;;;;;;;;4.75;4.75;;;29.56;97393.06;;;;118958;1190;25825;-66
2022/07/10 05:46:40;;;;;;;;;7.25;4.75;;;29.56;97390.16;;;;118964;1189;25467;-66
2022/07/10 05:49:08;;;;;;;;;5.75;5.50;;;29.56;97391.63;;;;118967;1190;25283;-65
2022/07/10 05:51:36;;;;;;;;;4.50;4.50;;;29.56;97392.70;;;;118972;1189;25141;-65
2022/07/10 05:54:12;;;;;;;;;4.50;4.50;;;29.58;97393.56;;;;118960;1189;24882;-65
2022/07/10 05:56:40;;;;;;;;;8.67;6.00;;;29.59;97394.33;;;;118957;1188;25328;-65
2022/07/10 05:59:08;;;;;;;;;4.75;4.00;;;29.58;97398.04;;;;118949;1189;25229;-65
2022/07/10 06:01:36;;;;;;;;;5.00;5.00;;;29.58;97397.30;;;;118959;1189;25479;-65
2022/07/10 06:04:04;;;;;;;;;5.00;4.00;;;29.58;97398.85;;;;118996;1189;25573;-65
2022/07/10 06:06:32;;;;;;;;;4.50;4.50;;;29.57;97404.63;;;;118912;1191;25523;-66
2022/07/10 06:09:00;;;;;;;;;5.00;5.00;;;29.57;97401.15;;;;118969;1189;25319;-65
2022/07/10 06:11:28;;;;;;;;;4.00;4.00;;;29.57;97402.06;;;;118984;1190;25558;-66
2022/07/10 06:13:56;;;;;;;;;6.00;4.25;;;29.58;97400.65;;;;118920;1190;24882;-66
2022/07/10 06:16:24;;;;;;;;;3.25;3.00;;;29.57;97402.27;;;;118987;1189;25602;-66
2022/07/10 06:18:52;;;;;;;;;5.00;3.75;;;29.57;97407.51;;;;118963;1189;25473;-66
2022/07/10 06:21:22;;;;;;;;;5.67;4.67;;;29.57;97414.10;;;;118982;1189;25004;-65
2022/07/10 06:23:50;;;;;;;;;5.25;5.25;;;29.57;97411.95;;;;118962;1189;25361;-65
2022/07/10 06:26:18;;;;;;;;;8.75;6.75;;;29.57;97408.60;;;;118968;1189;25009;-65
2022/07/10 06:28:46;;;;;;;;;5.00;4.00;;;29.57;97410.63;;;;118974;1190;25227;-65
2022/07/10 06:31:14;;;;;;;;;6.75;5.00;;;29.57;97410.00;;;;118946;1189;25192;-65
2022/07/10 06:33:42;;;;;;;;;4.25;4.25;;;29.56;97407.30;;;;118973;1189;25271;-63
2022/07/10 06:36:12;;;;;;;;;6.00;4.50;;;29.56;97404.61;;;;118946;1189;25115;-64
2022/07/10 06:38:41;;;;;;;;;5.75;5.50;;;29.57;97407.05;;;;118954;1189;25240;-65
2022/07/10 06:41:10;;;;;;;;;4.75;3.00;;;29.58;97407.90;;;;118967;1189;25792;-65
2022/07/10 06:43:38;;;;;;;;;5.75;5.75;;;29.58;97410.36;;;;118951;1190;25566;-64
2022/07/10 06:46:05;;;;;;;;;4.50;3.25;;;29.57;97409.88;;;;118977;1189;24822;-65
2022/07/10 06:48:35;;;;;;;;;4.00;4.00;;;29.57;97406.94;;;;118960;1188;25152;-65
2022/07/10 06:51:05;;;;;;;;;5.25;4.75;;;29.58;97410.84;;;;118914;1190;26514;-65
2022/07/10 06:53:33;;;;;;;;;4.00;4.00;;;29.58;97412.66;;;;118956;1190;25991;-65
2022/07/10 06:56:01;;;;;;;;;5.33;4.67;;;29.58;97416.00;;;;118972;1189;26435;-64
2022/07/10 06:58:29;;;;;;;;;5.00;4.50;;;29.58;97411.66;;;;118955;1189;26315;-64
2022/07/10 07:00:57;;;;;;;;;4.25;4.00;;;29.57;97417.52;;;;118947;1189;24844;-64
2022/07/10 07:03:24;;;;;;;;;4.25;4.00;;;29.57;97414.66;;;;118972;1190;25093;-65
2022/07/10 07:05:52;;;;;;;;;5.33;5.33;;;29.58;97419.42;;;;118966;1190;25752;-65
2022/07/10 07:08:20;;;;;;;;;4.25;3.50;;;29.57;97421.45;;;;118960;1190;25041;-65
2022/07/10 07:10:48;;;;;;;;;6.00;3.50;;;29.58;97429.81;;;;118969;1189;26023;-65
2022/07/10 07:13:16;;;;;;;;;6.00;4.00;;;29.57;97421.90;;;;118959;1189;25116;-65
2022/07/10 07:15:50;;;;;;;;;10.00;4.50;;;29.57;97421.74;;;;118990;1190;25524;-65
2022/07/10 07:18:21;;;;;;;;;5.25;5.25;;;29.58;97424.46;;;;118967;1189;25483;-63
2022/07/10 07:23:35;;;;;;;;;3.75;3.00;;;29.60;97421.03;;;;118968;1188;25654;-65
2022/07/10 07:26:03;;;;;;;;;3.75;3.75;;;29.57;97424.16;;;;118990;1189;25777;-64
2022/07/10 07:28:31;;;;;;;;;5.00;3.75;;;29.56;97426.70;;;;118953;1188;25250;-64
2022/07/10 07:30:59;;;;;;;;;6.00;5.50;;;29.56;97429.66;;;;118985;1189;26183;-65
2022/07/10 07:33:27;;;;;;;;;5.75;4.50;;;29.55;97424.85;;;;118981;1189;25811;-65
2022/07/10 07:35:55;;;;;;;;;5.00;4.67;;;29.55;97428.58;;;;118960;1190;25203;-65
2022/07/10 07:38:23;;;;;;;;;4.25;3.50;;;29.55;97434.52;;;;118982;1190;24948;-65
2022/07/10 07:40:51;;;;;;;;;4.75;4.75;;;29.55;97438.00;;;;118957;1189;25430;-65
2022/07/10 07:43:18;;;;;;;;;4.50;4.50;;;29.55;97435.42;;;;118981;1189;24860;-65
2022/07/10 07:45:47;;;;;;;;;6.00;4.75;;;29.55;97438.73;;;;118968;1189;25139;-64
2022/07/10 07:48:15;;;;;;;;;4.00;4.00;;;29.55;97439.88;;;;118965;1189;25230;-65
2022/07/10 07:50:43;;;;;;;;;5.25;4.50;;;29.54;97440.03;;;;118986;1189;25490;-65
2022/07/10 07:53:11;;;;;;;;;4.25;3.50;;;29.54;97442.13;;;;118945;1189;24861;-65
2022/07/10 07:55:39;;;;;;;;;7.00;4.25;;;29.55;97445.41;;;;118962;1189;25545;-65
2022/07/10 07:58:07;;;;;;;;;4.50;4.50;;;29.55;97444.89;;;;119001;1189;24950;-65
2022/07/10 08:00:35;;;;;;;;;6.50;6.50;;;29.55;97448.09;;;;119000;1188;25280;-65
2022/07/10 08:03:03;;;;;;;;;4.50;3.25;;;29.55;97450.47;;;;118974;1189;25526;-65
2022/07/10 08:05:31;;;;;;;;;8.75;4.75;;;29.55;97458.70;;;;119000;1190;25061;-65
2022/07/10 08:08:04;;;;;;;;;5.00;5.00;;;29.56;97460.56;;;;118965;1189;25536;-65
2022/07/10 08:10:32;;;;;;;;;7.75;4.00;;;29.56;97456.20;;;;118979;1189;25280;-65
2022/07/10 08:13:01;;;;;;;;;4.00;4.00;;;29.57;97456.71;;;;118985;1189;26105;-65
2022/07/10 08:15:29;;;;;;;;;4.50;4.50;;;29.57;97454.08;;;;118990;1189;25552;-65
2022/07/10 08:17:59;;;;;;;;;3.25;3.25;;;29.56;97451.08;;;;118984;1189;24808;-65
2022/07/10 08:20:27;;;;;;;;;3.50;3.50;;;29.56;97447.04;;;;118925;1190;26353;-65
2022/07/10 08:22:54;;;;;;;;;4.50;4.25;;;29.55;97442.17;;;;118990;1189;25213;-65
2022/07/10 08:25:29;;;;;;;;;4.00;4.00;;;29.55;97441.70;;;;118970;1189;26564;-65
2022/07/10 08:28:05;;;;;;;;;5.25;5.25;;;29.57;97442.05;;;;118980;1189;25118;-65
2022/07/10 08:30:33;;;;;;;;;4.50;3.25;;;29.57;97437.65;;;;118939;1190;25296;-66
2022/07/10 08:33:01;;;;;;;;;5.00;5.00;;;29.56;97434.75;;;;118973;1190;25183;-66
2022/07/10 08:35:30;;;;;;;;;4.75;4.75;;;29.55;97431.24;;;;118971;1189;26114;-66
2022/07/10 08:37:58;;;;;;;;;5.00;4.50;;;29.55;97430.05;;;;118967;1189;25813;-66
2022/07/10 08:40:35;;;;;;;;;3.50;3.50;;;29.55;97425.98;;;;118983;1189;24769;-66
2022/07/10 08:43:03;;;;;;;;;5.00;4.25;;;29.58;97428.00;;;;118913;1190;26041;-64
2022/07/10 08:45:35;;;;;;;;;3.75;3.75;;;29.58;97425.55;;;;118973;1189;25553;-65
2022/07/10 08:48:05;;;;;;;;;7.25;5.75;;;29.59;97423.81;;;;118973;1189;25308;-65
2022/07/10 08:50:38;;;;;;;;;6.00;5.00;;;29.60;97426.02;;;;118933;1189;25224;-65
2022/07/10 08:53:32;;;;;;;;;4.75;4.00;;;29.60;97429.61;;;;118963;1189;26378;-64
2022/07/10 08:56:00;;;;;;;;;3.25;3.25;;;29.69;97429.38;;;;118983;1190;25104;-64
2022/07/10 08:58:30;;;;;;;;;4.50;3.00;;;29.69;97427.23;;;;118960;1189;25724;-65
2022/07/10 09:00:58;;;;;;;;;3.75;3.50;;;29.66;97420.17;;;;118904;1190;25070;-65
2022/07/10 09:03:26;;;;;;;;;3.00;3.00;;;29.64;97419.90;;;;118985;1188;25251;-65
2022/07/10 09:05:54;;;;;;;;;5.00;5.00;;;29.63;97419.77;;;;118940;1189;25761;-66
2022/07/10 09:08:24;;;;;;;;;4.00;3.00;;;29.61;97420.02;;;;118966;1188;26388;-65
2022/07/10 09:10:52;;;;;;;;;4.00;4.00;;;29.60;97421.38;;;;118973;1190;25672;-66
2022/07/10 09:13:20;;;;;;;;;6.33;4.67;;;29.60;97421.75;;;;118973;1189;25810;-66
2022/07/10 09:15:49;;;;;;;;;4.00;4.00;;;29.58;97424.40;;;;118949;1189;25611;-64
2022/07/10 09:18:20;;;;;;;;;3.75;3.75;;;29.59;97421.91;;;;118968;1189;25466;-65
2022/07/10 09:20:49;;;;;;;;;4.25;4.25;;;29.60;97419.27;;;;118927;1188;25728;-66
2022/07/10 09:23:18;;;;;;;;;4.25;4.25;;;29.59;97417.02;;;;118985;1189;25067;-66
2022/07/10 09:25:48;;;;;;;;;7.00;6.50;;;29.59;97415.16;;;;118967;1189;24803;-66
2022/07/10 09:28:18;;;;;;;;;3.67;3.67;;;29.59;97412.34;;;;118968;1189;25647;-65
2022/07/10 09:30:47;;;;;;;;;5.67;4.33;;;29.59;97413.13;;;;118983;1189;25970;-65
2022/07/10 09:33:18;;;;;;;;;4.25;4.25;;;29.60;97416.27;;;;118990;1189;25872;-64
2022/07/10 09:36:08;;;;;;;;;8.00;6.75;;;29.60;97415.48;;;;118960;1190;25587;-64
2022/07/10 09:38:42;;;;;;;;;8.25;6.50;;;29.60;97415.02;;;;118984;1189;24831;-66
2022/07/10 09:41:16;;;;;;;;;7.00;5.00;;;29.58;97415.20;;;;118977;1189;25711;-65
2022/07/10 09:43:50;;;;;;;;;7.00;7.00;;;29.57;97410.52;;;;119004;1189;24826;-65
2022/07/10 09:46:21;;;;;;;;;8.00;7.25;;;29.58;97406.94;;;;118971;1190;25096;-64
2022/07/10 09:49:01;;;;;;;;;6.00;6.00;;;29.58;97402.97;;;;118995;1190;25089;-64
2022/07/10 09:51:34;;;;;;;;;5.50;5.00;;;29.62;97400.77;;;;118985;1189;25599;-65
2022/07/10 09:54:04;;;;;;;;;5.00;5.00;;;29.65;97398.77;;;;119012;1189;25532;-65
2022/07/10 09:56:43;;;;;;;;;3.75;3.75;;;29.63;97398.87;;;;119009;1189;25640;-65
2022/07/10 09:59:16;;;;;;;;;5.00;5.00;;;29.63;97396.70;;;;118980;1190;25306;-64
2022/07/10 10:01:54;;;;;;;;;9.25;6.75;;;29.63;97390.66;;;;119008;1189;25119;-64
2022/07/10 10:04:25;;;;;;;;;5.25;5.25;;;29.66;97387.35;;;;118992;1189;24816;-64
2022/07/10 10:06:56;;;;;;;;;5.50;5.50;;;29.65;97381.97;;;;118991;1190;25963;-65
2022/07/10 10:09:25;;;;;;;;;6.00;4.50;;;29.63;97378.73;;;;118986;1189;25869;-65
2022/07/10 10:12:00;;;;;;;;;7.50;6.25;;;29.62;97374.11;;;;118965;1190;25344;-65
2022/07/10 10:14:29;;;;;;;;;7.75;5.50;;;29.62;97369.06;;;;118983;1189;25864;-65
2022/07/10 10:16:59;;;;;;;;;8.50;4.50;;;29.62;97367.11;;;;118991;1190;25630;-65
2022/07/10 10:22:19;;;;;;;;;5.75;5.75;;;29.63;97358.33;;;;118983;1189;25644;-65
2022/07/10 10:24:48;;;;;;;;;6.50;5.25;;;29.60;97350.96;;;;118957;1189;25183;-65
2022/07/10 10:27:16;;;;;;;;;7.00;5.00;;;29.60;97346.45;;;;118966;1189;25574;-64
2022/07/10 10:29:45;;;;;;;;;11.25;9.25;;;29.60;97345.34;;;;118924;1190;24981;-65
2022/07/10 10:32:13;;;;;;;;;6.00;6.00;;;29.60;97345.08;;;;118993;1190;25600;-64
2022/07/10 10:34:42;;;;;;;;;4.25;4.25;;;29.59;97340.34;;;;118978;1189;25997;-65
2022/07/10 10:37:40;;;;;;;;;4.00;4.00;;;29.58;97336.95;;;;118987;1189;25355;-66
2022/07/10 10:40:10;;;;;;;;;2.50;2.50;;;29.60;97338.35;;;;118969;1190;26448;-66
2022/07/10 10:42:45;;;;;;;;;6.25;5.75;;;29.59;97341.00;;;;118981;1189;25562;-64
2022/07/10 10:45:36;;;;;;;;;7.33;7.00;;;29.61;97332.83;;;;118990;1190;25801;-64
2022/07/10 10:48:03;;;;;;;;;6.00;6.00;;;29.63;97327.77;;;;118926;1190;24727;-65
2022/07/10 10:50:56;;;;;;;;;5.00;5.00;;;29.69;97329.48;;;;118962;1188;24865;-65
2022/07/10 10:53:26;;;;;;;;;8.50;7.25;;;29.68;97320.76;;;;119001;1190;25763;-65
2022/07/10 10:56:00;;;;;;;;;6.00;6.00;;;29.66;97322.45;;;;118959;1189;25733;-65
2022/07/10 10:58:45;;;;;;;;;6.50;6.50;;;29.65;97315.36;;;;118975;1189;26476;-65
2022/07/10 11:01:29;;;;;;;;;5.00;5.00;;;29.68;97308.16;;;;118972;1188;25152;-65
2022/07/10 11:04:09;;;;;;;;;4.50;4.50;;;29.67;97308.27;;;;118943;1189;24935;-65
2022/07/10 11:06:49;;;;;;;;;6.00;6.00;;;29.67;97305.05;;;;118964;1189;25050;-65
2022/07/10 11:09:32;;;;;;;;;5.00;5.00;;;29.65;97301.50;;;;118954;1189;25688;-64
2022/07/10 11:12:12;;;;;;;;;8.25;4.75;;;29.66;97293.39;;;;118938;1188;25481;-65
2022/07/10 11:14:45;;;;;;;;;6.50;5.75;;;29.65;97297.57;;;;118973;1190;25995;-65
2022/07/10 11:17:13;;;;;;;;;5.50;5.25;;;29.65;97294.99;;;;118968;1189;25383;-65
2022/07/10 11:19:41;;;;;;;;;6.00;5.00;;;29.66;97300.02;;;;118977;1189;25110;-65
2022/07/10 11:22:29;;;;;;;;;7.00;6.50;;;29.65;97300.65;;;;118925;1189;25740;-65
2022/07/10 11:26:10;;;;;;;;;5.50;3.00;;;29.67;97297.60;;;;118984;1189;25169;-65
2022/07/10 11:28:43;;;;;;;;;4.50;4.50;;;29.79;97294.04;;;;118727;1191;26079;-65
2022/07/10 11:31:11;;;;;;;;;3.25;3.25;;;29.74;97297.48;;;;118915;1191;25374;-65
2022/07/10 11:33:44;;;;;;;;;5.25;4.25;;;29.70;97292.38;;;;118960;1189;25744;-66
2022/07/10 11:36:14;;;;;;;;;4.00;4.00;;;29.69;97296.42;;;;118969;1189;25857;-65
2022/07/10 11:38:44;;;;;;;;;5.33;5.33;;;29.68;97289.84;;;;118968;1189;25286;-65
2022/07/10 11:41:16;;;;;;;;;10.75;5.00;;;29.67;97289.05;;;;118977;1188;24900;-64
2022/07/10 11:44:13;;;;;;;;;7.50;5.25;;;29.67;97282.01;;;;118998;1188;25538;-66
2022/07/10 11:46:43;;;;;;;;;10.00;8.67;;;29.78;97280.64;;;;118982;1189;24896;-66
2022/07/10 11:49:14;;;;;;;;;6.00;6.00;;;29.78;97279.98;;;;118957;1189;24796;-66
2022/07/10 11:51:44;;;;;;;;;7.75;5.75;;;29.75;97281.52;;;;118958;1190;25652;-65
2022/07/10 11:54:16;;;;;;;;;6.33;6.33;;;29.73;97278.20;;;;118963;1189;25437;-66
2022/07/10 11:56:54;;;;;;;;;6.67;6.33;;;29.73;97275.02;;;;118967;1189;25232;-65
2022/07/10 11:59:27;;;;;;;;;6.00;6.00;;;29.74;97273.98;;;;118977;1189;24837;-65
2022/07/10 12:01:56;;;;;;;;;5.75;5.75;;;29.73;97274.20;;;;118999;1189;25714;-66
2022/07/10 12:04:25;;;;;;;;;5.25;5.00;;;29.72;97271.94;;;;118958;1189;26082;-64
2022/07/10 12:06:55;;;;;;;;;7.50;6.50;;;29.72;97269.67;;;;118980;1189;25651;-65
2022/07/10 12:09:24;;;;;;;;;7.50;7.50;;;29.72;97269.81;;;;118975;1189;24979;-65
2022/07/10 12:12:03;;;;;;;;;6.50;5.75;;;29.71;97270.57;;;;118989;1189;25169;-64
2022/07/10 12:14:31;;;;;;;;;4.00;4.00;;;29.71;97266.58;;;;119010;1189;25367;-64
2022/07/10 12:17:00;;;;;;;;;7.75;5.25;;;29.71;97267.53;;;;118943;1190;25023;-64
2022/07/10 12:19:38;;;;;;;;;6.75;6.75;;;29.71;97265.11;;;;118990;1189;25596;-65
2022/07/10 12:22:06;;;;;;;;;3.50;3.50;;;29.70;97262.69;;;;118974;1190;26192;-64
2022/07/10 12:24:34;;;;;;;;;6.00;6.00;;;29.70;97262.39;;;;118972;1190;25410;-64
2022/07/10 12:27:03;;;;;;;;;6.00;5.00;;;29.69;97260.19;;;;118969;1190;26265;-65
2022/07/10 12:29:30;;;;;;;;;6.00;6.00;;;29.69;97260.35;;;;118987;1189;25081;-65